Omskiy-107 — UBWE3 — position and weather

sailwx.info

Track history (hours):
 
Tides and Currents Weather Stations Pressure Air Temp Water Temp Dewpoint Dewpoint Depression Visibility Wind Speed Wind Dir Waves Ship Positions

Omskiy-107

Last reported at 2016-Feb-15 09:29 UTC. Time now 2016-Apr-30 13:04 UTC.
Position N 37°00' E 024°56'.
Warning: this ship's position is months out of date.

Length 108 m; draft 3.3 m.

Type: Cargo ship. MMSI: 273343220.

Date/timePositionNaut miles runAvg speedWind from/ knotsBaromVisibWave heightAir tempDewpointWater temp
2016-Feb-15 09:29N 37°00' E 024°56'7 7.8
2016-Feb-15 08:34N 37°06' E 025°02'8 8.0
2016-Feb-15 07:34N 37°10' E 025°10'8 7.8
2016-Feb-15 06:33N 37°13' E 025°19'8 8.3
2016-Feb-15 05:33N 37°16' E 025°29'8 7.7
2016-Feb-15 04:33N 37°19' E 025°38'6 5.9
2016-Feb-15 03:33N 37°24' E 025°43'6 5.6
2016-Feb-15 02:33N 37°28' E 025°47'6 5.7
2016-Feb-15 01:34N 37°32' E 025°51'  
Track history (hours):
 
Tides and Currents Weather Stations Pressure Air Temp Water Temp Dewpoint Dewpoint Depression Visibility Wind Speed Wind Dir Waves Ship Positions

Omskiy-107

Last reported at 2016-Feb-15 09:29 UTC. Time now 2016-Apr-30 13:04 UTC.
Position N 37°00' E 024°56'.
Warning: this ship's position is months out of date.

Length 108 m; draft 3.3 m.

Type: Cargo ship. MMSI: 273343220.

Date/timePositionNaut miles runAvg speedWind from/ knotsBaromVisibWave heightAir tempDewpointWater temp
2016-Feb-15 09:29N 37°00' E 024°56'7 7.8
2016-Feb-15 08:34N 37°06' E 025°02'8 8.0
2016-Feb-15 07:34N 37°10' E 025°10'8 7.8
2016-Feb-15 06:33N 37°13' E 025°19'8 8.3
2016-Feb-15 05:33N 37°16' E 025°29'8 7.7
2016-Feb-15 04:33N 37°19' E 025°38'6 5.9
2016-Feb-15 03:33N 37°24' E 025°43'6 5.6
2016-Feb-15 02:33N 37°28' E 025°47'6 5.7
2016-Feb-15 01:34N 37°32' E 025°51'  

Dump ship's entire track history